createdAt,value
2023-04-27T00:00:41.589Z,33.64
2023-04-27T00:01:41.638Z,33.42
2023-04-27T00:02:41.834Z,34.58
2023-04-27T00:03:42.084Z,37.00
2023-04-27T00:04:42.138Z,34.27
2023-04-27T00:05:41.998Z,35.73
2023-04-27T00:06:41.915Z,36.31
2023-04-27T00:07:41.944Z,35.37
2023-04-27T00:08:42.006Z,34.07
2023-04-27T00:09:42.493Z,39.67
2023-04-27T00:10:42.121Z,35.29
2023-04-27T00:11:42.165Z,37.60
2023-04-27T00:12:42.204Z,38.66
2023-04-27T00:13:42.272Z,36.23
2023-04-27T00:14:42.514Z,38.40
2023-04-27T00:15:42.318Z,36.51
2023-04-27T00:16:42.393Z,32.66
2023-04-27T00:17:42.521Z,33.61
2023-04-27T00:18:42.484Z,35.28
2023-04-27T00:19:42.538Z,34.14
2023-04-27T00:20:42.604Z,36.34
2023-04-27T00:21:42.636Z,32.73
2023-04-27T00:22:42.688Z,37.16
2023-04-27T00:23:42.773Z,36.47
2023-04-27T00:24:42.848Z,34.60
2023-04-27T00:25:42.872Z,37.00
2023-04-27T00:26:43.003Z,34.78
2023-04-27T00:27:42.994Z,35.22
2023-04-27T00:28:43.022Z,37.55
2023-04-27T00:29:43.524Z,35.76
2023-04-27T00:30:43.135Z,37.92
2023-04-27T00:31:43.218Z,33.48
2023-04-27T00:32:43.306Z,36.56
2023-04-27T00:33:43.295Z,34.14
2023-04-27T00:34:43.358Z,31.51
2023-04-27T00:35:43.492Z,31.95
2023-04-27T00:36:43.445Z,30.19
2023-04-27T00:37:43.475Z,31.76
2023-04-27T00:38:43.533Z,31.13
2023-04-27T00:39:43.583Z,28.19
2023-04-27T00:40:43.990Z,27.39
2023-04-27T00:41:43.672Z,26.63
2023-04-27T00:42:43.709Z,27.67
2023-04-27T00:43:43.751Z,27.32
2023-04-27T00:44:43.800Z,32.92
2023-04-27T00:45:43.878Z,30.30
2023-04-27T00:46:43.874Z,27.14
2023-04-27T00:47:43.939Z,28.95
2023-04-27T00:48:43.970Z,29.72
2023-04-27T00:49:43.987Z,32.86
2023-04-27T00:50:44.046Z,27.90
2023-04-27T00:51:44.092Z,29.38
2023-04-27T00:52:44.127Z,29.31
2023-04-27T00:53:44.141Z,28.60
2023-04-27T00:54:44.213Z,27.98
2023-04-27T00:55:44.260Z,30.52
2023-04-27T00:56:44.280Z,27.14
2023-04-27T00:57:44.353Z,28.53
2023-04-27T00:58:44.407Z,30.54
2023-04-27T00:59:44.529Z,27.57
2023-04-27T01:00:44.497Z,32.59
2023-04-27T01:01:44.702Z,32.09
2023-04-27T01:02:44.705Z,29.84
2023-04-27T01:03:44.760Z,29.75
2023-04-27T01:04:44.662Z,26.72
2023-04-27T01:05:44.699Z,30.81
2023-04-27T01:06:44.743Z,27.65
2023-04-27T01:07:44.748Z,29.30
2023-04-27T01:08:44.792Z,29.61
2023-04-27T01:09:44.838Z,26.59
2023-04-27T01:10:44.915Z,28.77
2023-04-27T01:11:44.936Z,26.16
2023-04-27T01:12:44.996Z,28.80
2023-04-27T01:13:45.032Z,31.68
2023-04-27T01:14:45.056Z,28.38
2023-04-27T01:15:45.104Z,31.06
2023-04-27T01:16:45.214Z,28.79
2023-04-27T01:17:45.238Z,25.00
2023-04-27T01:18:45.221Z,29.21
2023-04-27T01:19:45.283Z,32.30
2023-04-27T01:20:45.304Z,29.48
2023-04-27T01:21:45.349Z,28.30
2023-04-27T01:22:45.398Z,34.36
2023-04-27T01:23:45.461Z,32.55
2023-04-27T01:24:45.469Z,32.39
2023-04-27T01:25:45.512Z,33.80
2023-04-27T01:26:45.524Z,32.28
2023-04-27T01:27:45.575Z,30.51
2023-04-27T01:28:45.606Z,32.86
2023-04-27T01:29:45.633Z,30.14
2023-04-27T01:30:45.679Z,28.37
2023-04-27T01:31:45.816Z,27.60
2023-04-27T01:32:45.763Z,32.22
2023-04-27T01:33:45.808Z,30.48
2023-04-27T01:34:45.843Z,33.35
2023-04-27T01:35:45.838Z,30.51
2023-04-27T01:36:45.885Z,29.96
2023-04-27T01:37:45.943Z,29.69
2023-04-27T01:38:45.969Z,34.71
2023-04-27T01:39:45.953Z,29.50
2023-04-27T01:40:46.028Z,28.64
2023-04-27T01:41:46.079Z,30.11
2023-04-27T01:42:46.110Z,34.25
2023-04-27T01:43:46.164Z,29.75
2023-04-27T01:44:46.194Z,29.53
2023-04-27T01:45:46.232Z,28.87
2023-04-27T01:46:46.446Z,29.29
2023-04-27T01:47:46.355Z,30.18
2023-04-27T01:48:46.379Z,28.47
2023-04-27T01:49:46.387Z,33.35
2023-04-27T01:50:46.416Z,29.37
2023-04-27T01:51:46.455Z,30.50
2023-04-27T01:52:46.494Z,30.19
2023-04-27T01:53:46.523Z,27.74
2023-04-27T01:54:46.578Z,29.30
2023-04-27T01:55:46.659Z,31.17
2023-04-27T01:56:46.691Z,34.28
2023-04-27T01:57:46.705Z,30.45
2023-04-27T01:58:46.770Z,33.86
2023-04-27T01:59:46.786Z,30.81
2023-04-27T02:00:46.816Z,29.42
2023-04-27T02:01:46.880Z,31.41
2023-04-27T02:02:46.996Z,28.45
2023-04-27T02:03:47.314Z,30.49
2023-04-27T02:04:47.461Z,28.28
2023-04-27T02:05:47.190Z,28.38
2023-04-27T02:06:47.029Z,29.01
2023-04-27T02:07:47.092Z,31.91
2023-04-27T02:08:47.173Z,30.16
2023-04-27T02:09:47.206Z,29.66
2023-04-27T02:10:47.226Z,30.32
2023-04-27T02:11:47.279Z,31.25
2023-04-27T02:12:47.304Z,29.76
2023-04-27T02:13:47.328Z,29.17
2023-04-27T02:14:47.403Z,28.98
2023-04-27T02:15:47.571Z,28.81
2023-04-27T02:16:47.456Z,25.70
2023-04-27T02:17:47.577Z,31.76
2023-04-27T02:18:47.497Z,27.11
2023-04-27T02:19:47.521Z,31.71
2023-04-27T02:20:47.548Z,31.23
2023-04-27T02:21:47.596Z,30.61
2023-04-27T02:22:47.618Z,29.84
2023-04-27T02:23:47.664Z,29.56
2023-04-27T02:24:47.705Z,31.43
2023-04-27T02:25:47.750Z,32.09
2023-04-27T02:26:47.792Z,27.75
2023-04-27T02:27:47.799Z,27.64
2023-04-27T02:28:47.828Z,31.22
2023-04-27T02:29:47.855Z,28.70
2023-04-27T02:30:47.852Z,31.37
2023-04-27T02:31:47.917Z,34.02
2023-04-27T02:32:47.953Z,30.81
2023-04-27T02:33:47.942Z,28.80
2023-04-27T02:34:47.942Z,31.02
2023-04-27T02:35:47.968Z,31.69
2023-04-27T02:36:47.984Z,28.22
2023-04-27T02:37:48.014Z,29.65
2023-04-27T02:38:48.028Z,27.28
2023-04-27T02:39:48.072Z,28.54
2023-04-27T02:40:48.082Z,35.13
2023-04-27T02:41:48.109Z,31.09
2023-04-27T02:42:48.140Z,28.51
2023-04-27T02:43:48.146Z,29.13
2023-04-27T02:44:48.139Z,29.32
2023-04-27T02:45:48.183Z,31.33
2023-04-27T02:46:48.280Z,29.62
2023-04-27T02:47:48.246Z,29.65
2023-04-27T02:48:48.237Z,31.46
2023-04-27T02:49:48.247Z,34.08
2023-04-27T02:50:48.284Z,31.11
2023-04-27T02:51:48.305Z,33.02
2023-04-27T02:52:48.321Z,31.29
2023-04-27T02:53:48.321Z,32.48
2023-04-27T02:54:48.393Z,31.51
2023-04-27T02:55:48.437Z,32.07
2023-04-27T02:56:48.385Z,30.77
2023-04-27T02:57:48.402Z,29.66
2023-04-27T02:58:48.442Z,28.99
2023-04-27T02:59:48.483Z,30.77
2023-04-27T03:00:49.088Z,35.96
2023-04-27T03:01:48.492Z,33.85
2023-04-27T03:02:48.631Z,32.98
2023-04-27T03:03:48.714Z,31.96
2023-04-27T03:04:48.676Z,33.92
2023-04-27T03:05:48.623Z,34.02
2023-04-27T03:06:48.671Z,36.10
2023-04-27T03:07:48.678Z,35.66
2023-04-27T03:08:48.649Z,35.50
2023-04-27T03:09:49.015Z,32.56
2023-04-27T03:10:48.704Z,32.54
2023-04-27T03:11:48.709Z,36.05
2023-04-27T03:12:48.753Z,36.93
2023-04-27T03:13:48.794Z,39.60
2023-04-27T03:14:48.773Z,36.24
2023-04-27T03:15:48.809Z,35.70
2023-04-27T03:16:48.927Z,33.51
2023-04-27T03:17:48.863Z,31.66
2023-04-27T03:18:48.818Z,32.44
2023-04-27T03:19:48.873Z,34.45
2023-04-27T03:20:48.899Z,34.22
2023-04-27T03:21:48.906Z,38.95
2023-04-27T03:22:48.949Z,37.86
2023-04-27T03:23:48.935Z,38.56
2023-04-27T03:24:48.991Z,35.73
2023-04-27T03:25:48.948Z,33.38
2023-04-27T03:26:49.019Z,36.73
2023-04-27T03:27:49.035Z,32.91
2023-04-27T03:28:49.023Z,34.25
2023-04-27T03:29:49.073Z,34.48
2023-04-27T03:30:49.065Z,38.78
2023-04-27T03:31:49.093Z,35.10
2023-04-27T03:32:49.083Z,36.03
2023-04-27T03:33:49.061Z,38.47
2023-04-27T03:34:49.062Z,34.19
2023-04-27T03:35:49.070Z,36.14
2023-04-27T03:36:49.128Z,34.51
2023-04-27T03:37:49.100Z,37.19
2023-04-27T03:38:49.143Z,30.93
2023-04-27T03:39:49.201Z,39.52
2023-04-27T03:40:49.180Z,35.67
2023-04-27T03:41:49.194Z,32.30
2023-04-27T03:42:49.246Z,37.24
2023-04-27T03:43:49.239Z,38.76
2023-04-27T03:44:49.249Z,35.58
2023-04-27T03:45:49.301Z,36.05
2023-04-27T03:46:49.289Z,40.24
2023-04-27T03:47:49.371Z,38.94
2023-04-27T03:48:49.309Z,39.32
2023-04-27T03:49:49.329Z,42.06
2023-04-27T03:50:49.383Z,37.87
2023-04-27T03:51:49.386Z,42.36
2023-04-27T03:52:49.394Z,40.15
2023-04-27T03:53:49.436Z,41.07
2023-04-27T03:54:49.557Z,45.00
2023-04-27T03:55:49.481Z,41.30
2023-04-27T03:56:49.466Z,44.62
2023-04-27T03:57:49.497Z,41.83
2023-04-27T03:58:49.555Z,40.40
2023-04-27T03:59:49.507Z,43.94
2023-04-27T04:00:49.571Z,42.18
2023-04-27T04:01:49.524Z,42.79
2023-04-27T04:02:49.829Z,44.05
2023-04-27T04:03:49.757Z,42.93
2023-04-27T04:04:49.708Z,42.05
2023-04-27T04:05:50.065Z,40.90
2023-04-27T04:06:49.643Z,41.30
2023-04-27T04:07:49.636Z,43.84
2023-04-27T04:08:49.647Z,45.88
2023-04-27T04:09:49.661Z,45.13
2023-04-27T04:10:49.677Z,45.20
2023-04-27T04:11:49.734Z,40.14
2023-04-27T04:12:49.683Z,41.63
2023-04-27T04:13:49.704Z,44.07
2023-04-27T04:14:49.758Z,41.35
2023-04-27T04:15:49.792Z,43.52
2023-04-27T04:16:49.741Z,40.98
2023-04-27T04:17:49.818Z,37.55
2023-04-27T04:18:49.776Z,43.48
2023-04-27T04:19:49.779Z,41.72
2023-04-27T04:20:49.827Z,41.77
2023-04-27T04:21:49.811Z,42.19
2023-04-27T04:22:49.817Z,42.53
2023-04-27T04:23:49.875Z,42.59
2023-04-27T04:24:49.869Z,42.93
2023-04-27T04:25:49.871Z,44.10
2023-04-27T04:26:49.884Z,42.35
2023-04-27T04:27:49.920Z,44.81
2023-04-27T04:28:49.936Z,44.13
2023-04-27T04:29:49.927Z,44.39
2023-04-27T04:30:49.981Z,43.17
2023-04-27T04:31:50.111Z,42.11
2023-04-27T04:32:50.026Z,43.44
2023-04-27T04:33:50.022Z,42.52
2023-04-27T04:34:50.109Z,45.38
2023-04-27T04:35:50.080Z,44.21
2023-04-27T04:36:50.113Z,43.14
2023-04-27T04:37:50.101Z,42.60
2023-04-27T04:38:50.084Z,46.42
2023-04-27T04:39:50.110Z,45.84
2023-04-27T04:40:50.146Z,43.75
2023-04-27T04:41:50.146Z,44.62
2023-04-27T04:42:50.167Z,48.34
2023-04-27T04:43:50.156Z,46.39
2023-04-27T04:44:50.203Z,45.51
2023-04-27T04:45:50.217Z,48.25
2023-04-27T04:46:50.286Z,48.46
2023-04-27T04:47:50.271Z,49.73
2023-04-27T04:48:51.645Z,46.68
2023-04-27T04:49:50.261Z,48.76
2023-04-27T04:50:50.284Z,50.72
2023-04-27T04:51:50.325Z,45.70
2023-04-27T04:52:50.323Z,45.91
2023-04-27T04:53:50.328Z,50.14
2023-04-27T04:54:50.357Z,50.27
2023-04-27T04:55:50.554Z,51.07
2023-04-27T04:56:50.380Z,47.88
2023-04-27T04:57:50.426Z,48.12
2023-04-27T04:58:50.419Z,51.37
2023-04-27T04:59:50.433Z,49.75
2023-04-27T05:00:50.594Z,49.15
2023-04-27T05:01:50.471Z,49.24
2023-04-27T05:02:50.558Z,48.94
2023-04-27T05:03:50.600Z,65.41
2023-04-27T05:04:50.492Z,69.86
2023-04-27T05:05:50.563Z,78.24
2023-04-27T05:06:50.499Z,71.70
2023-04-27T05:07:50.489Z,69.54
2023-04-27T05:08:50.522Z,61.92
2023-04-27T05:09:50.555Z,49.17
2023-04-27T05:10:50.561Z,40.91
2023-04-27T05:11:50.569Z,35.03
2023-04-27T05:12:50.599Z,34.75
2023-04-27T05:13:50.629Z,30.31
2023-04-27T05:14:50.681Z,25.00
2023-04-27T05:15:50.743Z,26.11
2023-04-27T05:16:50.694Z,27.04
2023-04-27T05:17:50.734Z,29.45
2023-04-27T05:18:50.771Z,25.00
2023-04-27T05:19:50.753Z,26.43
2023-04-27T05:20:50.798Z,29.24
2023-04-27T05:21:50.813Z,25.86
2023-04-27T05:22:50.862Z,29.85
2023-04-27T05:23:50.854Z,29.95
2023-04-27T05:24:50.865Z,29.67
2023-04-27T05:25:50.953Z,29.94
2023-04-27T05:26:50.971Z,30.29
2023-04-27T05:27:50.976Z,28.99
2023-04-27T05:28:51.022Z,32.27
2023-04-27T05:29:51.053Z,33.30
2023-04-27T05:30:51.116Z,35.62
2023-04-27T05:31:51.153Z,38.23
2023-04-27T05:32:51.167Z,45.90
2023-04-27T05:33:51.164Z,48.41
2023-04-27T05:34:51.212Z,48.59
2023-04-27T05:35:51.587Z,53.80
2023-04-27T05:36:51.292Z,53.42
2023-04-27T05:37:51.321Z,57.99
2023-04-27T05:38:51.352Z,64.25
2023-04-27T05:39:51.384Z,66.42
2023-04-27T05:40:51.406Z,67.89
2023-04-27T05:41:51.446Z,77.06
2023-04-27T05:42:51.461Z,77.11
2023-04-27T05:43:51.575Z,72.37
2023-04-27T05:44:51.549Z,68.97
2023-04-27T05:45:51.557Z,69.16
2023-04-27T05:46:51.612Z,63.00
2023-04-27T05:47:51.642Z,63.29
2023-04-27T05:48:51.687Z,62.94
2023-04-27T05:49:51.677Z,62.33
2023-04-27T05:50:52.097Z,59.08
2023-04-27T05:51:51.771Z,69.93
2023-04-27T05:52:51.814Z,57.52
2023-04-27T05:53:51.883Z,70.67
2023-04-27T05:54:51.881Z,84.22
2023-04-27T05:55:51.918Z,97.44
2023-04-27T05:56:52.007Z,109.53
2023-04-27T05:58:04.600Z,113.39
2023-04-27T05:58:53.013Z,113.78
2023-04-27T05:59:51.985Z,115.95
2023-04-27T06:00:51.984Z,123.95
2023-04-27T06:01:52.067Z,138.64
2023-04-27T06:02:52.196Z,162.92
2023-04-27T06:03:52.101Z,161.21
2023-04-27T06:04:52.022Z,153.77
2023-04-27T06:05:51.941Z,152.47
2023-04-27T06:06:51.952Z,170.02
2023-04-27T06:07:51.940Z,178.70
2023-04-27T06:08:51.940Z,195.22
2023-04-27T06:09:51.927Z,212.52
2023-04-27T06:10:51.910Z,223.66
2023-04-27T06:11:51.902Z,234.84
2023-04-27T06:12:51.911Z,245.18
2023-04-27T06:13:51.922Z,250.00
2023-04-27T06:14:51.876Z,248.84
2023-04-27T06:15:51.933Z,248.52
2023-04-27T06:16:51.931Z,248.86
2023-04-27T06:17:52.016Z,250.00
2023-04-27T06:18:52.035Z,249.44
2023-04-27T06:19:52.023Z,250.49
2023-04-27T06:20:52.118Z,250.00
2023-04-27T06:21:52.132Z,249.25
2023-04-27T06:22:52.163Z,249.36
2023-04-27T06:23:52.158Z,248.74
2023-04-27T06:24:53.159Z,249.17
2023-04-27T06:25:52.155Z,250.60
2023-04-27T06:26:52.175Z,254.48
2023-04-27T06:27:52.169Z,262.81
2023-04-27T06:28:52.094Z,271.66
2023-04-27T06:29:52.123Z,253.57
2023-04-27T06:30:52.104Z,249.97
2023-04-27T06:31:52.180Z,249.65
2023-04-27T06:32:52.189Z,249.80
2023-04-27T06:33:52.090Z,250.00
2023-04-27T06:34:52.061Z,248.63
2023-04-27T06:35:52.102Z,250.00
2023-04-27T06:36:52.092Z,249.89
2023-04-27T06:37:52.036Z,249.45
2023-04-27T06:38:52.081Z,248.86
2023-04-27T06:39:52.040Z,247.57
2023-04-27T06:40:52.623Z,249.18
2023-04-27T06:41:52.038Z,249.93
2023-04-27T06:42:52.025Z,250.00
2023-04-27T06:43:52.015Z,250.49
2023-04-27T06:44:52.026Z,249.80
2023-04-27T06:45:52.067Z,248.50
2023-04-27T06:46:51.994Z,249.99
2023-04-27T06:47:51.989Z,249.80
2023-04-27T06:48:51.997Z,251.05
2023-04-27T06:49:52.025Z,249.61
2023-04-27T06:50:52.210Z,248.02
2023-04-27T06:51:52.053Z,245.81
2023-04-27T06:52:52.098Z,239.25
2023-04-27T06:53:52.061Z,209.44
2023-04-27T06:54:52.094Z,211.17
2023-04-27T06:55:52.110Z,230.23
2023-04-27T06:56:52.141Z,231.74
2023-04-27T06:57:52.164Z,231.41
2023-04-27T06:58:52.191Z,228.31
2023-04-27T06:59:52.232Z,227.47
2023-04-27T07:00:52.239Z,230.17
2023-04-27T07:01:52.351Z,230.57
2023-04-27T07:02:52.313Z,231.43
2023-04-27T07:03:52.460Z,234.62
2023-04-27T07:04:52.496Z,236.98
2023-04-27T07:05:52.313Z,239.45
2023-04-27T07:06:52.384Z,244.37
2023-04-27T07:07:52.361Z,246.24
2023-04-27T07:08:52.364Z,249.08
2023-04-27T07:09:52.554Z,249.14
2023-04-27T07:10:52.410Z,249.29
2023-04-27T07:11:52.445Z,249.25
2023-04-27T07:12:52.495Z,249.89
2023-04-27T07:13:52.502Z,249.54
2023-04-27T07:14:52.532Z,249.74
2023-04-27T07:15:52.603Z,248.82
2023-04-27T07:16:52.663Z,248.67
2023-04-27T07:17:52.652Z,250.00
2023-04-27T07:18:52.701Z,248.59
2023-04-27T07:19:52.755Z,249.87
2023-04-27T07:20:52.837Z,248.80
2023-04-27T07:21:52.868Z,249.40
2023-04-27T07:22:52.901Z,249.52
2023-04-27T07:23:54.181Z,248.65
2023-04-27T07:24:53.012Z,248.79
2023-04-27T07:25:53.068Z,247.08
2023-04-27T07:26:53.147Z,248.68
2023-04-27T07:27:53.137Z,247.43
2023-04-27T07:28:53.203Z,247.94
2023-04-27T07:29:53.290Z,245.87
2023-04-27T07:30:53.316Z,244.79
2023-04-27T07:31:53.417Z,246.56
2023-04-27T07:32:53.541Z,250.00
2023-04-27T07:33:53.460Z,222.18
2023-04-27T07:34:54.497Z,185.90
2023-04-27T07:35:53.481Z,163.19
2023-04-27T07:36:53.510Z,125.68
2023-04-27T07:37:53.526Z,99.36
2023-04-27T07:38:53.533Z,86.23
2023-04-27T07:39:53.583Z,88.61
2023-04-27T07:40:53.591Z,106.26
2023-04-27T07:41:53.653Z,121.35
2023-04-27T07:42:53.665Z,133.75
2023-04-27T07:43:53.711Z,139.55
2023-04-27T07:44:53.734Z,139.09
2023-04-27T07:45:54.150Z,130.56
2023-04-27T07:46:53.756Z,113.51
2023-04-27T07:47:53.793Z,74.36
2023-04-27T07:48:53.808Z,74.91
2023-04-27T07:49:53.869Z,90.77
2023-04-27T07:50:53.855Z,97.90
2023-04-27T07:51:53.889Z,98.21
2023-04-27T07:52:53.998Z,90.32
2023-04-27T07:53:53.960Z,72.02
2023-04-27T07:54:54.013Z,80.60
2023-04-27T07:55:54.282Z,89.42
2023-04-27T07:56:54.114Z,100.17
2023-04-27T07:57:54.186Z,111.25
2023-04-27T07:58:54.194Z,120.51
2023-04-27T07:59:54.208Z,125.31
2023-04-27T08:00:54.216Z,132.72
2023-04-27T08:01:57.259Z,139.14
2023-04-27T08:02:55.456Z,139.50
2023-04-27T08:03:54.469Z,141.11
2023-04-27T08:04:54.628Z,145.23
2023-04-27T08:05:54.389Z,152.96
2023-04-27T08:06:54.870Z,162.30
2023-04-27T08:07:54.728Z,168.64
2023-04-27T08:08:54.229Z,172.09
2023-04-27T08:09:54.175Z,176.35
2023-04-27T08:10:55.180Z,176.51
2023-04-27T08:11:54.176Z,177.63
2023-04-27T08:12:54.167Z,179.93
2023-04-27T08:13:54.183Z,185.55
2023-04-27T08:14:54.156Z,191.98
2023-04-27T08:15:54.146Z,195.98
2023-04-27T08:16:54.175Z,198.87
2023-04-27T08:17:54.177Z,201.43
2023-04-27T08:18:54.130Z,204.38
2023-04-27T08:19:54.147Z,207.86
2023-04-27T08:20:54.232Z,209.24
2023-04-27T08:21:54.252Z,211.54
2023-04-27T08:22:54.333Z,213.46
2023-04-27T08:23:54.378Z,216.43
2023-04-27T08:24:54.374Z,217.08
2023-04-27T08:25:54.438Z,219.56
2023-04-27T08:26:54.467Z,222.17
2023-04-27T08:27:54.491Z,224.05
2023-04-27T08:28:54.554Z,226.09
2023-04-27T08:29:54.543Z,227.91
2023-04-27T08:30:54.670Z,232.29
2023-04-27T08:31:56.738Z,230.25
2023-04-27T08:32:54.796Z,231.50
2023-04-27T08:33:54.674Z,234.50
2023-04-27T08:35:01.787Z,237.93
2023-04-27T08:35:54.743Z,238.20
2023-04-27T08:36:54.711Z,238.89
2023-04-27T08:37:54.745Z,239.72
2023-04-27T08:38:54.718Z,243.15
2023-04-27T08:39:54.690Z,247.21
2023-04-27T08:40:54.674Z,244.76
2023-04-27T08:41:54.681Z,247.10
2023-04-27T08:42:54.673Z,249.16
2023-04-27T08:43:54.661Z,247.76
2023-04-27T08:44:54.656Z,241.83
2023-04-27T08:45:54.661Z,235.18
2023-04-27T08:46:54.720Z,208.32
2023-04-27T08:47:54.745Z,188.91
2023-04-27T08:48:54.628Z,140.00
2023-04-27T08:49:54.601Z,136.93
2023-04-27T08:50:54.629Z,139.53
2023-04-27T08:51:54.630Z,158.08
2023-04-27T08:52:54.582Z,173.63
2023-04-27T08:53:54.599Z,181.88
2023-04-27T08:54:54.589Z,187.99
2023-04-27T08:55:54.587Z,190.49
2023-04-27T08:56:54.581Z,187.14
2023-04-27T08:57:54.539Z,184.40
2023-04-27T08:58:54.575Z,172.50
2023-04-27T08:59:54.519Z,173.41
2023-04-27T09:00:54.547Z,184.95
2023-04-27T09:01:54.552Z,190.45
2023-04-27T09:02:54.635Z,195.99
2023-04-27T09:03:54.606Z,202.18
2023-04-27T09:04:54.666Z,205.90
2023-04-27T09:06:04.538Z,210.52
2023-04-27T09:06:55.504Z,210.73
2023-04-27T09:07:54.514Z,211.68
2023-04-27T09:08:54.490Z,213.80
2023-04-27T09:09:54.481Z,218.60
2023-04-27T09:10:54.477Z,225.33
2023-04-27T09:11:54.485Z,227.16
2023-04-27T09:12:54.438Z,227.83
2023-04-27T09:13:54.463Z,229.96
2023-04-27T09:14:54.449Z,231.81
2023-04-27T09:15:54.458Z,231.56
2023-04-27T09:16:54.433Z,233.12
2023-04-27T09:17:54.479Z,234.59
2023-04-27T09:18:54.438Z,235.07
2023-04-27T09:19:54.497Z,237.35
2023-04-27T09:20:54.502Z,239.26
2023-04-27T09:21:54.539Z,241.24
2023-04-27T09:22:54.529Z,242.08
2023-04-27T09:23:54.592Z,244.24
2023-04-27T09:24:54.571Z,246.86
2023-04-27T09:25:54.614Z,249.00
2023-04-27T09:26:54.615Z,248.98
2023-04-27T09:27:54.656Z,250.00
2023-04-27T09:28:54.665Z,248.93
2023-04-27T09:29:54.664Z,250.00
2023-04-27T09:30:54.723Z,250.00
2023-04-27T09:31:54.782Z,248.63
2023-04-27T09:32:54.749Z,249.84
2023-04-27T09:33:54.708Z,249.64
2023-04-27T09:34:54.710Z,249.74
2023-04-27T09:35:54.754Z,248.84
2023-04-27T09:36:54.730Z,248.20
2023-04-27T09:37:54.769Z,249.83
2023-04-27T09:38:54.770Z,250.00
2023-04-27T09:39:54.778Z,250.00
2023-04-27T09:40:54.800Z,248.90
2023-04-27T09:41:54.802Z,249.80
2023-04-27T09:42:54.802Z,249.40
2023-04-27T09:43:57.049Z,250.00
2023-04-27T09:44:54.819Z,249.30
2023-04-27T09:45:54.825Z,250.00
2023-04-27T09:46:55.184Z,250.00
2023-04-27T09:47:54.830Z,249.53
2023-04-27T09:48:54.739Z,249.10
2023-04-27T09:49:54.756Z,242.22
2023-04-27T09:50:54.751Z,246.29
2023-04-27T09:51:54.774Z,247.19
2023-04-27T09:52:54.754Z,247.09
2023-04-27T09:53:54.728Z,247.29
2023-04-27T09:54:54.761Z,244.67
2023-04-27T09:55:54.749Z,239.44
2023-04-27T09:56:54.711Z,235.90
2023-04-27T09:57:54.695Z,233.08
2023-04-27T09:58:54.684Z,231.89
2023-04-27T09:59:54.685Z,230.27
2023-04-27T10:00:54.780Z,229.66
2023-04-27T10:01:54.695Z,227.77
2023-04-27T10:02:54.749Z,225.75
2023-04-27T10:03:54.824Z,226.01
2023-04-27T10:04:54.738Z,225.22
2023-04-27T10:05:54.665Z,221.89
2023-04-27T10:06:55.501Z,220.64
2023-04-27T10:07:54.716Z,220.66
2023-04-27T10:08:54.723Z,220.21
2023-04-27T10:09:54.720Z,217.28
2023-04-27T10:10:54.730Z,216.19
2023-04-27T10:11:54.816Z,213.14
2023-04-27T10:12:54.831Z,211.35
2023-04-27T10:13:55.255Z,209.72
2023-04-27T10:14:54.921Z,210.74
2023-04-27T10:15:54.934Z,209.21
2023-04-27T10:16:55.026Z,209.68
2023-04-27T10:17:55.066Z,206.72
2023-04-27T10:18:55.097Z,204.57
2023-04-27T10:19:57.344Z,204.60
2023-04-27T10:20:55.112Z,205.37
2023-04-27T10:21:55.187Z,206.23
2023-04-27T10:22:55.071Z,204.89
2023-04-27T10:23:55.082Z,205.17
2023-04-27T10:24:55.104Z,203.00
2023-04-27T10:25:55.068Z,200.98
2023-04-27T10:26:55.108Z,201.27
2023-04-27T10:27:55.078Z,198.59
2023-04-27T10:28:55.066Z,198.64
2023-04-27T10:29:55.035Z,196.87
2023-04-27T10:30:55.061Z,197.54
2023-04-27T10:31:55.002Z,198.58
2023-04-27T10:32:55.036Z,197.16
2023-04-27T10:33:55.018Z,196.16
2023-04-27T10:34:54.995Z,193.53
2023-04-27T10:35:54.988Z,193.83
2023-04-27T10:36:55.009Z,192.65
2023-04-27T10:37:54.994Z,191.88
2023-04-27T10:38:54.951Z,191.76
2023-04-27T10:39:55.092Z,191.65
2023-04-27T10:40:54.989Z,189.85
2023-04-27T10:41:55.232Z,188.74
2023-04-27T10:42:54.957Z,187.60
2023-04-27T10:43:55.079Z,185.73
2023-04-27T10:44:54.957Z,184.91
2023-04-27T10:45:54.957Z,185.01
2023-04-27T10:46:54.971Z,183.46
2023-04-27T10:47:54.959Z,183.70
2023-04-27T10:48:54.926Z,183.18
2023-04-27T10:49:54.898Z,182.59
2023-04-27T10:50:54.981Z,183.73
2023-04-27T10:51:54.875Z,183.58
2023-04-27T10:52:54.882Z,182.54
2023-04-27T10:53:54.907Z,181.58
2023-04-27T10:54:54.858Z,182.06
2023-04-27T10:55:54.847Z,180.65
2023-04-27T10:56:55.191Z,179.69
2023-04-27T10:57:55.194Z,179.64
2023-04-27T10:58:54.870Z,178.62
2023-04-27T10:59:54.829Z,177.82
2023-04-27T11:00:54.836Z,177.83
2023-04-27T11:01:54.873Z,176.75
2023-04-27T11:02:54.902Z,176.83
2023-04-27T11:03:55.031Z,175.36
2023-04-27T11:04:54.973Z,175.26
2023-04-27T11:05:56.501Z,173.59
2023-04-27T11:06:55.691Z,173.25
2023-04-27T11:07:55.268Z,171.35
2023-04-27T11:08:55.352Z,170.37
2023-04-27T11:09:55.397Z,169.35
2023-04-27T11:10:55.418Z,169.97
2023-04-27T11:11:55.534Z,169.57
2023-04-27T11:12:55.573Z,168.86
2023-04-27T11:13:55.645Z,167.94
2023-04-27T11:14:55.624Z,167.41
2023-04-27T11:15:55.724Z,166.68
2023-04-27T11:16:55.771Z,165.25
2023-04-27T11:17:55.867Z,164.78
2023-04-27T11:18:56.624Z,163.43
2023-04-27T11:19:55.924Z,163.94
2023-04-27T11:20:55.954Z,163.52
2023-04-27T11:21:56.208Z,162.46
2023-04-27T11:22:56.055Z,162.71
2023-04-27T11:23:56.133Z,161.90
2023-04-27T11:24:56.207Z,162.48
2023-04-27T11:25:56.212Z,161.32
2023-04-27T11:26:56.286Z,159.09
2023-04-27T11:27:56.374Z,159.47
2023-04-27T11:28:56.355Z,158.85
2023-04-27T11:29:56.402Z,157.16
2023-04-27T11:30:56.441Z,157.28
2023-04-27T11:31:56.602Z,157.37
2023-04-27T11:32:56.564Z,157.08
2023-04-27T11:33:56.560Z,156.49
2023-04-27T11:34:58.426Z,155.30
2023-04-27T11:35:56.765Z,155.41
2023-04-27T11:37:03.674Z,156.03
2023-04-27T11:37:57.578Z,156.23
2023-04-27T11:38:56.652Z,154.50
2023-04-27T11:39:56.597Z,150.53
2023-04-27T11:40:56.549Z,150.23
2023-04-27T11:41:56.532Z,149.38
2023-04-27T11:42:56.577Z,155.02
2023-04-27T11:43:56.519Z,157.68
2023-04-27T11:44:56.586Z,157.65
2023-04-27T11:45:56.522Z,155.89
2023-04-27T11:46:56.574Z,153.11
2023-04-27T11:47:56.546Z,149.70
2023-04-27T11:48:56.526Z,150.50
2023-04-27T11:49:56.576Z,149.06
2023-04-27T11:50:56.589Z,148.01
2023-04-27T11:51:56.729Z,147.30
2023-04-27T11:52:56.648Z,146.15
2023-04-27T11:53:56.722Z,145.06
2023-04-27T11:54:56.779Z,144.49
2023-04-27T11:55:56.750Z,143.97
2023-04-27T11:56:56.791Z,144.53
2023-04-27T11:57:56.833Z,144.49
2023-04-27T11:58:56.850Z,143.94
2023-04-27T11:59:56.914Z,142.98
2023-04-27T12:00:56.919Z,142.38
2023-04-27T12:01:57.026Z,141.81
2023-04-27T12:02:57.134Z,143.20
2023-04-27T12:03:58.089Z,141.65
2023-04-27T12:04:57.145Z,140.74
2023-04-27T12:06:04.038Z,140.93
2023-04-27T12:06:57.948Z,141.11
2023-04-27T12:07:56.940Z,141.06
2023-04-27T12:08:56.926Z,140.29
2023-04-27T12:09:58.427Z,138.87
2023-04-27T12:10:56.950Z,141.09
2023-04-27T12:11:56.921Z,138.91
2023-04-27T12:12:56.925Z,138.18
2023-04-27T12:13:56.952Z,136.29
2023-04-27T12:14:56.886Z,136.13
2023-04-27T12:15:58.515Z,135.09
2023-04-27T12:16:56.953Z,135.20
2023-04-27T12:17:56.928Z,135.30
2023-04-27T12:18:56.869Z,135.20
2023-04-27T12:19:56.916Z,135.29
2023-04-27T12:20:56.889Z,135.84
2023-04-27T12:21:56.954Z,135.65
2023-04-27T12:22:56.993Z,135.43
2023-04-27T12:23:56.987Z,134.96
2023-04-27T12:24:56.990Z,135.03
2023-04-27T12:25:57.023Z,134.25
2023-04-27T12:26:57.062Z,133.33
2023-04-27T12:27:57.081Z,134.04
2023-04-27T12:28:57.097Z,133.73
2023-04-27T12:29:57.099Z,132.58
2023-04-27T12:30:57.166Z,132.63
2023-04-27T12:31:57.250Z,132.81
2023-04-27T12:32:57.211Z,132.75
2023-04-27T12:33:57.164Z,131.60
2023-04-27T12:34:57.192Z,130.18
2023-04-27T12:35:57.444Z,131.38
2023-04-27T12:36:57.270Z,130.05
2023-04-27T12:37:57.205Z,128.58
2023-04-27T12:38:57.221Z,129.68
2023-04-27T12:39:57.224Z,129.16
2023-04-27T12:40:57.230Z,128.74